sensor_id;sensor_type;location;lat;lon;timestamp;temperature;humidity
16271;DHT22;8243;49.048;8.396;2024-02-26T00:01:40;9.20;20.00
16271;DHT22;8243;49.048;8.396;2024-02-26T00:04:06;9.20;19.60
16271;DHT22;8243;49.048;8.396;2024-02-26T00:06:32;9.20;19.60
16271;DHT22;8243;49.048;8.396;2024-02-26T00:08:57;9.30;19.80
16271;DHT22;8243;49.048;8.396;2024-02-26T00:11:23;9.20;20.00
16271;DHT22;8243;49.048;8.396;2024-02-26T00:13:49;9.10;20.00
16271;DHT22;8243;49.048;8.396;2024-02-26T00:16:14;9.10;19.90
16271;DHT22;8243;49.048;8.396;2024-02-26T00:18:45;9.20;20.00
16271;DHT22;8243;49.048;8.396;2024-02-26T00:21:11;9.20;20.00
16271;DHT22;8243;49.048;8.396;2024-02-26T00:23:37;9.20;19.80
16271;DHT22;8243;49.048;8.396;2024-02-26T00:26:02;9.30;19.30
16271;DHT22;8243;49.048;8.396;2024-02-26T00:28:29;9.30;19.40
16271;DHT22;8243;49.048;8.396;2024-02-26T00:30:54;9.30;19.00
16271;DHT22;8243;49.048;8.396;2024-02-26T00:33:22;9.30;19.50
16271;DHT22;8243;49.048;8.396;2024-02-26T00:35:49;9.20;19.80
16271;DHT22;8243;49.048;8.396;2024-02-26T00:38:14;9.20;19.90
16271;DHT22;8243;49.048;8.396;2024-02-26T00:40:43;9.20;20.00
16271;DHT22;8243;49.048;8.396;2024-02-26T00:43:13;9.10;20.30
16271;DHT22;8243;49.048;8.396;2024-02-26T00:48:44;9.10;20.70
16271;DHT22;8243;49.048;8.396;2024-02-26T00:51:09;9.10;21.90
16271;DHT22;8243;49.048;8.396;2024-02-26T00:53:35;9.00;22.10
16271;DHT22;8243;49.048;8.396;2024-02-26T00:56:00;9.10;21.70
16271;DHT22;8243;49.048;8.396;2024-02-26T00:58:27;9.00;23.50
16271;DHT22;8243;49.048;8.396;2024-02-26T01:00:52;8.90;25.50
16271;DHT22;8243;49.048;8.396;2024-02-26T01:03:18;8.90;27.40
16271;DHT22;8243;49.048;8.396;2024-02-26T01:05:44;8.70;29.80
16271;DHT22;8243;49.048;8.396;2024-02-26T01:08:10;8.50;35.80
16271;DHT22;8243;49.048;8.396;2024-02-26T01:10:35;8.40;41.60
16271;DHT22;8243;49.048;8.396;2024-02-26T01:13:01;8.40;44.00
16271;DHT22;8243;49.048;8.396;2024-02-26T01:15:27;8.30;45.60
16271;DHT22;8243;49.048;8.396;2024-02-26T01:17:53;8.30;46.20
16271;DHT22;8243;49.048;8.396;2024-02-26T01:20:27;8.30;45.10
16271;DHT22;8243;49.048;8.396;2024-02-26T01:22:53;8.20;42.50
16271;DHT22;8243;49.048;8.396;2024-02-26T01:25:18;8.10;46.80
16271;DHT22;8243;49.048;8.396;2024-02-26T01:27:44;8.10;47.90
16271;DHT22;8243;49.048;8.396;2024-02-26T01:30:10;8.10;55.50
16271;DHT22;8243;49.048;8.396;2024-02-26T01:32:36;8.00;62.20
16271;DHT22;8243;49.048;8.396;2024-02-26T01:35:02;8.10;56.80
16271;DHT22;8243;49.048;8.396;2024-02-26T01:37:35;8.10;56.40
16271;DHT22;8243;49.048;8.396;2024-02-26T01:40:01;8.10;58.30
16271;DHT22;8243;49.048;8.396;2024-02-26T01:42:29;8.20;60.20
16271;DHT22;8243;49.048;8.396;2024-02-26T01:44:56;8.20;61.60
16271;DHT22;8243;49.048;8.396;2024-02-26T01:47:22;8.10;69.00
16271;DHT22;8243;49.048;8.396;2024-02-26T01:49:48;8.30;50.80
16271;DHT22;8243;49.048;8.396;2024-02-26T01:52:14;8.50;44.20
16271;DHT22;8243;49.048;8.396;2024-02-26T01:54:40;8.60;45.50
16271;DHT22;8243;49.048;8.396;2024-02-26T01:57:08;8.50;46.80
16271;DHT22;8243;49.048;8.396;2024-02-26T01:59:35;8.50;44.50
16271;DHT22;8243;49.048;8.396;2024-02-26T02:02:03;8.40;52.00
16271;DHT22;8243;49.048;8.396;2024-02-26T02:04:31;8.40;57.40
16271;DHT22;8243;49.048;8.396;2024-02-26T02:06:58;8.20;67.30
16271;DHT22;8243;49.048;8.396;2024-02-26T02:09:25;8.10;74.70
16271;DHT22;8243;49.048;8.396;2024-02-26T02:11:54;8.00;77.50
16271;DHT22;8243;49.048;8.396;2024-02-26T02:14:21;7.90;83.60
16271;DHT22;8243;49.048;8.396;2024-02-26T02:16:47;7.80;84.90
16271;DHT22;8243;49.048;8.396;2024-02-26T02:19:13;7.80;80.80
16271;DHT22;8243;49.048;8.396;2024-02-26T02:21:40;7.80;77.10
16271;DHT22;8243;49.048;8.396;2024-02-26T02:24:05;7.70;83.60
16271;DHT22;8243;49.048;8.396;2024-02-26T02:26:31;7.70;90.20
16271;DHT22;8243;49.048;8.396;2024-02-26T02:28:57;7.70;92.50
16271;DHT22;8243;49.048;8.396;2024-02-26T02:31:24;7.80;96.30
16271;DHT22;8243;49.048;8.396;2024-02-26T02:33:50;7.70;99.90
16271;DHT22;8243;49.048;8.396;2024-02-26T02:36:16;7.60;99.90
16271;DHT22;8243;49.048;8.396;2024-02-26T02:38:51;7.60;99.90
16271;DHT22;8243;49.048;8.396;2024-02-26T02:41:18;7.60;99.90
16271;DHT22;8243;49.048;8.396;2024-02-26T02:43:44;7.70;99.90
16271;DHT22;8243;49.048;8.396;2024-02-26T02:46:10;7.70;99.90
16271;DHT22;8243;49.048;8.396;2024-02-26T02:48:37;7.70;99.90
16271;DHT22;8243;49.048;8.396;2024-02-26T02:51:04;7.50;99.90
16271;DHT22;8243;49.048;8.396;2024-02-26T02:53:30;7.30;99.90
16271;DHT22;8243;49.048;8.396;2024-02-26T02:55:55;7.20;99.90
16271;DHT22;8243;49.048;8.396;2024-02-26T02:58:21;7.00;99.90
16271;DHT22;8243;49.048;8.396;2024-02-26T03:00:47;6.90;99.90
16271;DHT22;8243;49.048;8.396;2024-02-26T03:03:12;6.90;99.90
16271;DHT22;8243;49.048;8.396;2024-02-26T03:05:38;6.80;99.90
16271;DHT22;8243;49.048;8.396;2024-02-26T03:08:04;7.00;99.90
16271;DHT22;8243;49.048;8.396;2024-02-26T03:10:29;7.00;99.90
16271;DHT22;8243;49.048;8.396;2024-02-26T03:12:55;6.80;99.90
16271;DHT22;8243;49.048;8.396;2024-02-26T03:15:21;6.80;99.90
16271;DHT22;8243;49.048;8.396;2024-02-26T03:17:47;6.80;99.90
16271;DHT22;8243;49.048;8.396;2024-02-26T03:20:13;6.80;99.90
16271;DHT22;8243;49.048;8.396;2024-02-26T03:22:39;6.90;99.90
16271;DHT22;8243;49.048;8.396;2024-02-26T03:25:06;6.90;99.90
16271;DHT22;8243;49.048;8.396;2024-02-26T03:27:32;6.90;99.90
16271;DHT22;8243;49.048;8.396;2024-02-26T03:29:58;7.00;99.90
16271;DHT22;8243;49.048;8.396;2024-02-26T03:32:25;7.00;99.90
16271;DHT22;8243;49.048;8.396;2024-02-26T03:34:50;7.00;99.90
16271;DHT22;8243;49.048;8.396;2024-02-26T03:37:21;7.00;99.90
16271;DHT22;8243;49.048;8.396;2024-02-26T03:39:47;7.00;99.90
16271;DHT22;8243;49.048;8.396;2024-02-26T03:42:14;7.00;99.90
16271;DHT22;8243;49.048;8.396;2024-02-26T03:44:39;7.00;99.90
16271;DHT22;8243;49.048;8.396;2024-02-26T03:47:05;6.90;99.90
16271;DHT22;8243;49.048;8.396;2024-02-26T03:49:31;6.90;99.90
16271;DHT22;8243;49.048;8.396;2024-02-26T03:51:57;6.80;99.90
16271;DHT22;8243;49.048;8.396;2024-02-26T03:54:23;6.80;99.90
16271;DHT22;8243;49.048;8.396;2024-02-26T03:56:49;6.80;99.90
16271;DHT22;8243;49.048;8.396;2024-02-26T03:59:15;6.80;99.90
16271;DHT22;8243;49.048;8.396;2024-02-26T04:01:45;6.90;99.90
16271;DHT22;8243;49.048;8.396;2024-02-26T04:04:18;6.90;99.90
16271;DHT22;8243;49.048;8.396;2024-02-26T04:06:45;6.90;99.90
16271;DHT22;8243;49.048;8.396;2024-02-26T04:09:11;6.90;99.90
16271;DHT22;8243;49.048;8.396;2024-02-26T04:11:37;6.90;99.90
16271;DHT22;8243;49.048;8.396;2024-02-26T04:14:16;6.80;99.90
16271;DHT22;8243;49.048;8.396;2024-02-26T04:16:42;6.90;99.90
16271;DHT22;8243;49.048;8.396;2024-02-26T04:19:07;6.90;99.90
16271;DHT22;8243;49.048;8.396;2024-02-26T04:21:34;6.90;99.90
16271;DHT22;8243;49.048;8.396;2024-02-26T04:23:59;6.90;99.90
16271;DHT22;8243;49.048;8.396;2024-02-26T04:26:27;6.90;99.90
16271;DHT22;8243;49.048;8.396;2024-02-26T04:28:54;7.00;99.90
16271;DHT22;8243;49.048;8.396;2024-02-26T04:31:19;7.00;99.90
16271;DHT22;8243;49.048;8.396;2024-02-26T04:33:45;7.00;99.90
16271;DHT22;8243;49.048;8.396;2024-02-26T04:36:20;7.00;99.90
16271;DHT22;8243;49.048;8.396;2024-02-26T04:38:46;7.10;99.90
16271;DHT22;8243;49.048;8.396;2024-02-26T04:41:11;7.10;99.90
16271;DHT22;8243;49.048;8.396;2024-02-26T04:43:38;7.10;99.90
16271;DHT22;8243;49.048;8.396;2024-02-26T04:46:09;7.10;99.90
16271;DHT22;8243;49.048;8.396;2024-02-26T04:48:37;7.00;99.90
16271;DHT22;8243;49.048;8.396;2024-02-26T04:51:04;7.00;99.90
16271;DHT22;8243;49.048;8.396;2024-02-26T04:53:30;7.00;99.90
16271;DHT22;8243;49.048;8.396;2024-02-26T04:55:55;7.00;99.90
16271;DHT22;8243;49.048;8.396;2024-02-26T04:58:21;7.00;99.90
16271;DHT22;8243;49.048;8.396;2024-02-26T05:00:46;7.00;99.90
16271;DHT22;8243;49.048;8.396;2024-02-26T05:03:17;7.00;99.90
16271;DHT22;8243;49.048;8.396;2024-02-26T05:05:43;7.10;99.90
16271;DHT22;8243;49.048;8.396;2024-02-26T05:08:09;7.00;99.90
16271;DHT22;8243;49.048;8.396;2024-02-26T05:10:34;7.00;99.90
16271;DHT22;8243;49.048;8.396;2024-02-26T05:13:04;7.10;99.90
16271;DHT22;8243;49.048;8.396;2024-02-26T05:15:30;7.10;99.90
16271;DHT22;8243;49.048;8.396;2024-02-26T05:17:56;7.00;99.90
16271;DHT22;8243;49.048;8.396;2024-02-26T05:20:21;7.00;99.90
16271;DHT22;8243;49.048;8.396;2024-02-26T05:22:47;7.00;99.90
16271;DHT22;8243;49.048;8.396;2024-02-26T05:25:15;7.10;99.90
16271;DHT22;8243;49.048;8.396;2024-02-26T05:27:41;7.10;99.90
16271;DHT22;8243;49.048;8.396;2024-02-26T05:30:08;7.10;99.90
16271;DHT22;8243;49.048;8.396;2024-02-26T05:32:34;7.10;99.90
16271;DHT22;8243;49.048;8.396;2024-02-26T05:35:00;7.20;99.90
16271;DHT22;8243;49.048;8.396;2024-02-26T05:37:26;7.20;99.90
16271;DHT22;8243;49.048;8.396;2024-02-26T05:39:52;7.20;99.90
16271;DHT22;8243;49.048;8.396;2024-02-26T05:42:17;7.20;99.90
16271;DHT22;8243;49.048;8.396;2024-02-26T05:44:43;7.20;99.90
16271;DHT22;8243;49.048;8.396;2024-02-26T05:47:08;7.20;99.90
16271;DHT22;8243;49.048;8.396;2024-02-26T05:49:34;7.30;99.90
16271;DHT22;8243;49.048;8.396;2024-02-26T05:51:59;7.30;99.90
16271;DHT22;8243;49.048;8.396;2024-02-26T05:54:25;7.30;99.90
16271;DHT22;8243;49.048;8.396;2024-02-26T05:56:50;7.30;99.90
16271;DHT22;8243;49.048;8.396;2024-02-26T05:59:17;7.30;99.90
16271;DHT22;8243;49.048;8.396;2024-02-26T06:01:42;7.30;99.90
16271;DHT22;8243;49.048;8.396;2024-02-26T06:04:15;7.30;99.90
16271;DHT22;8243;49.048;8.396;2024-02-26T06:06:42;7.30;99.90
16271;DHT22;8243;49.048;8.396;2024-02-26T06:09:15;7.30;99.90
16271;DHT22;8243;49.048;8.396;2024-02-26T06:11:44;7.30;99.90
16271;DHT22;8243;49.048;8.396;2024-02-26T06:14:09;7.30;99.90
16271;DHT22;8243;49.048;8.396;2024-02-26T06:16:39;7.20;99.90
16271;DHT22;8243;49.048;8.396;2024-02-26T06:19:04;7.10;99.90
16271;DHT22;8243;49.048;8.396;2024-02-26T06:21:30;7.20;99.90
16271;DHT22;8243;49.048;8.396;2024-02-26T06:23:57;7.20;99.90
16271;DHT22;8243;49.048;8.396;2024-02-26T06:26:22;7.10;99.90
16271;DHT22;8243;49.048;8.396;2024-02-26T06:28:48;7.10;99.90
16271;DHT22;8243;49.048;8.396;2024-02-26T06:31:13;7.20;99.90
16271;DHT22;8243;49.048;8.396;2024-02-26T06:33:40;7.20;99.90
16271;DHT22;8243;49.048;8.396;2024-02-26T06:36:09;7.20;99.90
16271;DHT22;8243;49.048;8.396;2024-02-26T06:38:35;7.20;99.90
16271;DHT22;8243;49.048;8.396;2024-02-26T06:41:15;7.20;99.90
16271;DHT22;8243;49.048;8.396;2024-02-26T06:43:41;7.20;99.90
16271;DHT22;8243;49.048;8.396;2024-02-26T06:46:06;7.20;99.90
16271;DHT22;8243;49.048;8.396;2024-02-26T06:48:32;7.20;99.90
16271;DHT22;8243;49.048;8.396;2024-02-26T06:50:58;7.20;99.90
16271;DHT22;8243;49.048;8.396;2024-02-26T06:53:23;7.20;99.90
16271;DHT22;8243;49.048;8.396;2024-02-26T06:55:49;7.20;99.90
16271;DHT22;8243;49.048;8.396;2024-02-26T06:58:15;7.20;99.90
16271;DHT22;8243;49.048;8.396;2024-02-26T07:00:41;7.20;99.90
16271;DHT22;8243;49.048;8.396;2024-02-26T07:03:07;7.20;99.90
16271;DHT22;8243;49.048;8.396;2024-02-26T07:05:32;7.20;99.90
16271;DHT22;8243;49.048;8.396;2024-02-26T07:07:58;7.20;99.90
16271;DHT22;8243;49.048;8.396;2024-02-26T07:10:30;7.20;99.90
16271;DHT22;8243;49.048;8.396;2024-02-26T07:12:55;7.20;99.90
16271;DHT22;8243;49.048;8.396;2024-02-26T07:15:21;7.20;99.90
16271;DHT22;8243;49.048;8.396;2024-02-26T07:17:47;7.30;99.90
16271;DHT22;8243;49.048;8.396;2024-02-26T07:20:14;7.30;99.90
16271;DHT22;8243;49.048;8.396;2024-02-26T07:22:42;7.40;99.90
16271;DHT22;8243;49.048;8.396;2024-02-26T07:25:13;7.30;99.90
16271;DHT22;8243;49.048;8.396;2024-02-26T07:27:39;7.40;99.90
16271;DHT22;8243;49.048;8.396;2024-02-26T07:30:06;7.40;99.90
16271;DHT22;8243;49.048;8.396;2024-02-26T07:32:33;7.40;99.90
16271;DHT22;8243;49.048;8.396;2024-02-26T07:34:59;7.40;99.90
16271;DHT22;8243;49.048;8.396;2024-02-26T07:37:24;7.40;99.90
16271;DHT22;8243;49.048;8.396;2024-02-26T07:39:50;7.50;99.90
16271;DHT22;8243;49.048;8.396;2024-02-26T07:42:21;7.40;99.90
16271;DHT22;8243;49.048;8.396;2024-02-26T07:44:47;7.40;99.90
16271;DHT22;8243;49.048;8.396;2024-02-26T07:47:13;7.40;99.90
16271;DHT22;8243;49.048;8.396;2024-02-26T07:49:39;7.50;99.90
16271;DHT22;8243;49.048;8.396;2024-02-26T07:52:05;7.50;99.90
16271;DHT22;8243;49.048;8.396;2024-02-26T07:54:31;7.60;99.90
16271;DHT22;8243;49.048;8.396;2024-02-26T07:56:58;7.70;99.90
16271;DHT22;8243;49.048;8.396;2024-02-26T07:59:24;7.70;99.90
16271;DHT22;8243;49.048;8.396;2024-02-26T08:01:53;7.70;99.90
16271;DHT22;8243;49.048;8.396;2024-02-26T08:04:19;7.80;99.90
16271;DHT22;8243;49.048;8.396;2024-02-26T08:06:53;8.00;99.90
16271;DHT22;8243;49.048;8.396;2024-02-26T08:09:23;8.00;99.90
16271;DHT22;8243;49.048;8.396;2024-02-26T08:12:02;7.90;99.90
16271;DHT22;8243;49.048;8.396;2024-02-26T08:14:35;8.00;99.90
16271;DHT22;8243;49.048;8.396;2024-02-26T08:17:11;7.80;99.90
16271;DHT22;8243;49.048;8.396;2024-02-26T08:19:36;7.80;99.90
16271;DHT22;8243;49.048;8.396;2024-02-26T08:22:02;7.90;99.90
16271;DHT22;8243;49.048;8.396;2024-02-26T08:24:28;8.00;99.90
16271;DHT22;8243;49.048;8.396;2024-02-26T08:26:53;8.00;99.90
16271;DHT22;8243;49.048;8.396;2024-02-26T08:29:19;8.20;99.90
16271;DHT22;8243;49.048;8.396;2024-02-26T08:31:44;8.40;99.90
16271;DHT22;8243;49.048;8.396;2024-02-26T08:34:11;8.60;99.90
16271;DHT22;8243;49.048;8.396;2024-02-26T08:36:42;8.70;99.90
16271;DHT22;8243;49.048;8.396;2024-02-26T08:39:09;8.70;99.90
16271;DHT22;8243;49.048;8.396;2024-02-26T08:41:35;9.00;99.90
16271;DHT22;8243;49.048;8.396;2024-02-26T08:44:01;9.10;99.90
16271;DHT22;8243;49.048;8.396;2024-02-26T08:46:26;9.40;99.90
16271;DHT22;8243;49.048;8.396;2024-02-26T08:48:54;9.40;99.90
16271;DHT22;8243;49.048;8.396;2024-02-26T08:51:19;9.50;99.90
16271;DHT22;8243;49.048;8.396;2024-02-26T08:53:45;9.40;99.90
16271;DHT22;8243;49.048;8.396;2024-02-26T08:56:11;9.60;99.90
16271;DHT22;8243;49.048;8.396;2024-02-26T08:58:42;9.70;99.90
16271;DHT22;8243;49.048;8.396;2024-02-26T09:01:07;9.60;99.90
16271;DHT22;8243;49.048;8.396;2024-02-26T09:03:33;9.80;99.90
16271;DHT22;8243;49.048;8.396;2024-02-26T09:05:58;9.80;99.90
16271;DHT22;8243;49.048;8.396;2024-02-26T09:08:25;9.80;99.90
16271;DHT22;8243;49.048;8.396;2024-02-26T09:10:51;9.80;99.90
16271;DHT22;8243;49.048;8.396;2024-02-26T09:13:29;10.00;99.90
16271;DHT22;8243;49.048;8.396;2024-02-26T09:15:56;10.20;99.90
16271;DHT22;8243;49.048;8.396;2024-02-26T09:18:24;10.10;99.90
16271;DHT22;8243;49.048;8.396;2024-02-26T09:20:49;10.20;99.90
16271;DHT22;8243;49.048;8.396;2024-02-26T09:23:16;10.40;99.90
16271;DHT22;8243;49.048;8.396;2024-02-26T09:25:41;10.30;99.90
16271;DHT22;8243;49.048;8.396;2024-02-26T09:28:07;10.30;99.90
16271;DHT22;8243;49.048;8.396;2024-02-26T09:30:32;10.30;99.90
16271;DHT22;8243;49.048;8.396;2024-02-26T09:32:58;10.50;99.90
16271;DHT22;8243;49.048;8.396;2024-02-26T09:35:24;10.50;99.90
16271;DHT22;8243;49.048;8.396;2024-02-26T09:38:09;10.60;99.90
16271;DHT22;8243;49.048;8.396;2024-02-26T09:40:35;10.70;99.90
16271;DHT22;8243;49.048;8.396;2024-02-26T09:43:00;10.80;99.90
16271;DHT22;8243;49.048;8.396;2024-02-26T09:45:28;10.80;99.90
16271;DHT22;8243;49.048;8.396;2024-02-26T09:47:56;10.70;99.90
16271;DHT22;8243;49.048;8.396;2024-02-26T09:50:22;10.70;99.90
16271;DHT22;8243;49.048;8.396;2024-02-26T09:52:49;10.70;99.90
16271;DHT22;8243;49.048;8.396;2024-02-26T09:55:16;10.60;99.90
16271;DHT22;8243;49.048;8.396;2024-02-26T09:57:45;10.60;99.90
16271;DHT22;8243;49.048;8.396;2024-02-26T10:00:18;10.80;99.90
16271;DHT22;8243;49.048;8.396;2024-02-26T10:02:47;11.10;99.90
16271;DHT22;8243;49.048;8.396;2024-02-26T10:05:16;11.10;99.90
16271;DHT22;8243;49.048;8.396;2024-02-26T10:07:44;11.20;99.90
16271;DHT22;8243;49.048;8.396;2024-02-26T10:10:15;11.20;99.90
16271;DHT22;8243;49.048;8.396;2024-02-26T10:12:42;11.20;99.90
16271;DHT22;8243;49.048;8.396;2024-02-26T10:15:08;11.40;99.90
16271;DHT22;8243;49.048;8.396;2024-02-26T10:17:40;11.50;99.90
16271;DHT22;8243;49.048;8.396;2024-02-26T10:20:16;11.60;99.90
16271;DHT22;8243;49.048;8.396;2024-02-26T10:22:47;11.30;99.90
16271;DHT22;8243;49.048;8.396;2024-02-26T10:25:13;11.70;99.90
16271;DHT22;8243;49.048;8.396;2024-02-26T10:27:40;11.90;99.90
16271;DHT22;8243;49.048;8.396;2024-02-26T10:30:17;11.90;99.90
16271;DHT22;8243;49.048;8.396;2024-02-26T10:32:48;11.70;99.90
16271;DHT22;8243;49.048;8.396;2024-02-26T10:35:15;11.60;99.90
16271;DHT22;8243;49.048;8.396;2024-02-26T10:37:42;11.70;99.90
16271;DHT22;8243;49.048;8.396;2024-02-26T10:40:14;11.80;99.90
16271;DHT22;8243;49.048;8.396;2024-02-26T10:42:42;11.80;99.90
16271;DHT22;8243;49.048;8.396;2024-02-26T10:45:14;11.80;99.90
16271;DHT22;8243;49.048;8.396;2024-02-26T10:47:40;11.80;99.90
16271;DHT22;8243;49.048;8.396;2024-02-26T10:50:26;12.00;99.90
16271;DHT22;8243;49.048;8.396;2024-02-26T10:52:52;12.30;99.90
16271;DHT22;8243;49.048;8.396;2024-02-26T10:55:20;12.30;97.10
16271;DHT22;8243;49.048;8.396;2024-02-26T10:57:47;12.10;99.20
16271;DHT22;8243;49.048;8.396;2024-02-26T11:00:15;12.00;99.70
16271;DHT22;8243;49.048;8.396;2024-02-26T11:03:07;12.00;97.00
16271;DHT22;8243;49.048;8.396;2024-02-26T11:05:35;12.10;95.30
16271;DHT22;8243;49.048;8.396;2024-02-26T11:08:02;12.10;93.30
16271;DHT22;8243;49.048;8.396;2024-02-26T11:10:36;12.50;92.10
16271;DHT22;8243;49.048;8.396;2024-02-26T11:13:02;13.00;87.80
16271;DHT22;8243;49.048;8.396;2024-02-26T11:15:30;13.40;81.60
16271;DHT22;8243;49.048;8.396;2024-02-26T11:17:58;13.70;77.90
16271;DHT22;8243;49.048;8.396;2024-02-26T11:20:28;13.40;72.00
16271;DHT22;8243;49.048;8.396;2024-02-26T11:22:53;13.20;75.00
16271;DHT22;8243;49.048;8.396;2024-02-26T11:25:21;13.60;71.10
16271;DHT22;8243;49.048;8.396;2024-02-26T11:27:51;13.90;70.00
16271;DHT22;8243;49.048;8.396;2024-02-26T11:30:31;14.20;63.80
16271;DHT22;8243;49.048;8.396;2024-02-26T11:32:58;13.90;62.90
16271;DHT22;8243;49.048;8.396;2024-02-26T11:35:24;14.00;61.70
16271;DHT22;8243;49.048;8.396;2024-02-26T11:37:56;13.90;56.60
16271;DHT22;8243;49.048;8.396;2024-02-26T11:40:24;14.00;55.00
16271;DHT22;8243;49.048;8.396;2024-02-26T11:42:51;14.00;48.90
16271;DHT22;8243;49.048;8.396;2024-02-26T11:48:11;14.30;50.10
16271;DHT22;8243;49.048;8.396;2024-02-26T11:50:57;14.00;51.80
16271;DHT22;8243;49.048;8.396;2024-02-26T11:53:46;13.80;51.80
16271;DHT22;8243;49.048;8.396;2024-02-26T11:56:21;13.80;52.20
16271;DHT22;8243;49.048;8.396;2024-02-26T11:58:54;13.90;50.60
16271;DHT22;8243;49.048;8.396;2024-02-26T12:01:42;13.90;50.00
16271;DHT22;8243;49.048;8.396;2024-02-26T12:04:18;14.00;47.20
16271;DHT22;8243;49.048;8.396;2024-02-26T12:07:02;14.40;47.70
16271;DHT22;8243;49.048;8.396;2024-02-26T12:09:41;15.10;42.60
16271;DHT22;8243;49.048;8.396;2024-02-26T12:12:27;15.50;38.40
16271;DHT22;8243;49.048;8.396;2024-02-26T12:14:58;15.00;37.90
16271;DHT22;8243;49.048;8.396;2024-02-26T12:17:24;14.60;39.60
16271;DHT22;8243;49.048;8.396;2024-02-26T12:19:51;14.30;41.10
16271;DHT22;8243;49.048;8.396;2024-02-26T12:22:25;14.50;40.20
16271;DHT22;8243;49.048;8.396;2024-02-26T12:24:58;15.00;40.10
16271;DHT22;8243;49.048;8.396;2024-02-26T12:27:24;14.90;36.20
16271;DHT22;8243;49.048;8.396;2024-02-26T12:30:06;14.90;37.00
16271;DHT22;8243;49.048;8.396;2024-02-26T12:32:38;14.70;37.70
16271;DHT22;8243;49.048;8.396;2024-02-26T12:35:05;14.80;36.50
16271;DHT22;8243;49.048;8.396;2024-02-26T12:37:32;14.80;34.90
16271;DHT22;8243;49.048;8.396;2024-02-26T12:40:04;14.90;35.00
16271;DHT22;8243;49.048;8.396;2024-02-26T12:42:50;15.20;33.30
16271;DHT22;8243;49.048;8.396;2024-02-26T12:45:18;14.90;32.50
16271;DHT22;8243;49.048;8.396;2024-02-26T12:47:45;14.80;32.90
16271;DHT22;8243;49.048;8.396;2024-02-26T12:50:17;14.80;34.00
16271;DHT22;8243;49.048;8.396;2024-02-26T12:52:46;15.10;34.80
16271;DHT22;8243;49.048;8.396;2024-02-26T12:55:16;15.00;30.90
16271;DHT22;8243;49.048;8.396;2024-02-26T12:57:43;14.80;32.50
16271;DHT22;8243;49.048;8.396;2024-02-26T13:00:13;14.40;33.60
16271;DHT22;8243;49.048;8.396;2024-02-26T13:02:40;14.40;33.30
16271;DHT22;8243;49.048;8.396;2024-02-26T13:05:08;14.80;33.40
16271;DHT22;8243;49.048;8.396;2024-02-26T13:07:40;14.90;32.10
16271;DHT22;8243;49.048;8.396;2024-02-26T13:10:08;14.80;31.50
16271;DHT22;8243;49.048;8.396;2024-02-26T13:12:47;14.50;33.50
16271;DHT22;8243;49.048;8.396;2024-02-26T13:15:18;14.40;33.00
16271;DHT22;8243;49.048;8.396;2024-02-26T13:17:45;14.40;33.10
16271;DHT22;8243;49.048;8.396;2024-02-26T13:20:12;14.80;31.60
16271;DHT22;8243;49.048;8.396;2024-02-26T13:22:41;15.10;30.40
16271;DHT22;8243;49.048;8.396;2024-02-26T13:25:07;15.40;29.00
16271;DHT22;8243;49.048;8.396;2024-02-26T13:27:33;15.20;29.70
16271;DHT22;8243;49.048;8.396;2024-02-26T13:30:03;15.30;28.00
16271;DHT22;8243;49.048;8.396;2024-02-26T13:32:40;15.30;28.00
16271;DHT22;8243;49.048;8.396;2024-02-26T13:35:13;15.30;28.00
16271;DHT22;8243;49.048;8.396;2024-02-26T13:37:43;15.40;27.30
16271;DHT22;8243;49.048;8.396;2024-02-26T13:40:31;15.80;26.50
16271;DHT22;8243;49.048;8.396;2024-02-26T13:42:57;15.90;24.00
16271;DHT22;8243;49.048;8.396;2024-02-26T13:45:22;15.90;24.60
16271;DHT22;8243;49.048;8.396;2024-02-26T13:47:48;15.60;24.60
16271;DHT22;8243;49.048;8.396;2024-02-26T13:50:14;15.60;25.10
16271;DHT22;8243;49.048;8.396;2024-02-26T13:52:39;15.60;24.50
16271;DHT22;8243;49.048;8.396;2024-02-26T13:55:05;15.30;24.80
16271;DHT22;8243;49.048;8.396;2024-02-26T13:57:32;15.20;26.20
16271;DHT22;8243;49.048;8.396;2024-02-26T13:59:58;15.00;26.10
16271;DHT22;8243;49.048;8.396;2024-02-26T14:02:24;15.00;26.30
16271;DHT22;8243;49.048;8.396;2024-02-26T14:04:52;15.00;27.00
16271;DHT22;8243;49.048;8.396;2024-02-26T14:07:18;15.00;28.00
16271;DHT22;8243;49.048;8.396;2024-02-26T14:09:44;15.00;28.80
16271;DHT22;8243;49.048;8.396;2024-02-26T14:12:11;15.00;28.90
16271;DHT22;8243;49.048;8.396;2024-02-26T14:14:39;15.20;28.90
16271;DHT22;8243;49.048;8.396;2024-02-26T14:17:06;15.00;28.30
16271;DHT22;8243;49.048;8.396;2024-02-26T14:19:32;14.90;28.70
16271;DHT22;8243;49.048;8.396;2024-02-26T14:21:57;14.70;30.10
16271;DHT22;8243;49.048;8.396;2024-02-26T14:24:23;14.60;30.00
16271;DHT22;8243;49.048;8.396;2024-02-26T14:26:48;14.50;31.00
16271;DHT22;8243;49.048;8.396;2024-02-26T14:29:14;14.50;31.40
16271;DHT22;8243;49.048;8.396;2024-02-26T14:31:41;14.40;31.40
16271;DHT22;8243;49.048;8.396;2024-02-26T14:34:14;14.40;31.50
16271;DHT22;8243;49.048;8.396;2024-02-26T14:36:39;14.60;32.70
16271;DHT22;8243;49.048;8.396;2024-02-26T14:39:06;14.80;31.60
16271;DHT22;8243;49.048;8.396;2024-02-26T14:41:31;14.90;31.20
16271;DHT22;8243;49.048;8.396;2024-02-26T14:43:57;14.80;29.70
16271;DHT22;8243;49.048;8.396;2024-02-26T14:46:22;14.60;29.50
16271;DHT22;8243;49.048;8.396;2024-02-26T14:48:48;14.60;29.90
16271;DHT22;8243;49.048;8.396;2024-02-26T14:51:13;14.60;29.50
16271;DHT22;8243;49.048;8.396;2024-02-26T14:53:39;14.80;29.20
16271;DHT22;8243;49.048;8.396;2024-02-26T14:56:05;14.90;29.20
16271;DHT22;8243;49.048;8.396;2024-02-26T14:58:30;14.70;28.50
16271;DHT22;8243;49.048;8.396;2024-02-26T15:00:56;14.70;28.50
16271;DHT22;8243;49.048;8.396;2024-02-26T15:03:21;14.60;28.40
16271;DHT22;8243;49.048;8.396;2024-02-26T15:05:48;14.60;28.40
16271;DHT22;8243;49.048;8.396;2024-02-26T15:08:13;14.60;28.50
16271;DHT22;8243;49.048;8.396;2024-02-26T15:10:41;14.80;28.60
16271;DHT22;8243;49.048;8.396;2024-02-26T15:13:12;14.80;28.60
16271;DHT22;8243;49.048;8.396;2024-02-26T15:15:38;14.70;28.50
16271;DHT22;8243;49.048;8.396;2024-02-26T15:18:04;14.50;28.50
16271;DHT22;8243;49.048;8.396;2024-02-26T15:20:30;14.40;29.30
16271;DHT22;8243;49.048;8.396;2024-02-26T15:22:55;14.50;29.70
16271;DHT22;8243;49.048;8.396;2024-02-26T15:25:22;14.50;29.20
16271;DHT22;8243;49.048;8.396;2024-02-26T15:27:48;14.40;29.00
16271;DHT22;8243;49.048;8.396;2024-02-26T15:30:13;14.30;28.80
16271;DHT22;8243;49.048;8.396;2024-02-26T15:32:39;14.50;28.70
16271;DHT22;8243;49.048;8.396;2024-02-26T15:35:05;14.40;27.90
16271;DHT22;8243;49.048;8.396;2024-02-26T15:37:31;14.50;27.90
16271;DHT22;8243;49.048;8.396;2024-02-26T15:40:11;14.50;27.40
16271;DHT22;8243;49.048;8.396;2024-02-26T15:42:37;14.40;27.60
16271;DHT22;8243;49.048;8.396;2024-02-26T15:45:03;14.40;27.90
16271;DHT22;8243;49.048;8.396;2024-02-26T15:47:29;14.40;27.40
16271;DHT22;8243;49.048;8.396;2024-02-26T15:50:01;14.30;27.90
16271;DHT22;8243;49.048;8.396;2024-02-26T15:52:27;14.20;28.10
16271;DHT22;8243;49.048;8.396;2024-02-26T15:54:54;14.10;28.10
16271;DHT22;8243;49.048;8.396;2024-02-26T15:57:25;14.00;28.00
16271;DHT22;8243;49.048;8.396;2024-02-26T15:59:51;14.00;28.10
16271;DHT22;8243;49.048;8.396;2024-02-26T16:02:18;13.90;28.40
16271;DHT22;8243;49.048;8.396;2024-02-26T16:04:59;13.90;28.90